sensor_id;sensor_type;location;lat;lon;timestamp;P1;durP1;ratioP1;P2;durP2;ratioP2
10985;SDS011;5546;48.714;8.738;2022-08-25T00:01:24;3.73;;;3.33;;
10985;SDS011;5546;48.714;8.738;2022-08-25T00:03:52;5.77;;;3.17;;
10985;SDS011;5546;48.714;8.738;2022-08-25T00:06:19;4.20;;;3.10;;
10985;SDS011;5546;48.714;8.738;2022-08-25T00:08:44;3.93;;;3.37;;
10985;SDS011;5546;48.714;8.738;2022-08-25T00:11:12;5.50;;;3.53;;
10985;SDS011;5546;48.714;8.738;2022-08-25T00:13:42;5.23;;;3.10;;
10985;SDS011;5546;48.714;8.738;2022-08-25T00:16:09;3.70;;;3.30;;
10985;SDS011;5546;48.714;8.738;2022-08-25T00:18:36;3.87;;;3.50;;
10985;SDS011;5546;48.714;8.738;2022-08-25T00:21:04;3.77;;;3.40;;
10985;SDS011;5546;48.714;8.738;2022-08-25T00:23:30;3.93;;;3.50;;
10985;SDS011;5546;48.714;8.738;2022-08-25T00:25:55;4.47;;;3.07;;
10985;SDS011;5546;48.714;8.738;2022-08-25T00:28:21;3.93;;;3.20;;
10985;SDS011;5546;48.714;8.738;2022-08-25T00:30:47;5.53;;;3.30;;
10985;SDS011;5546;48.714;8.738;2022-08-25T00:33:13;5.27;;;3.80;;
10985;SDS011;5546;48.714;8.738;2022-08-25T00:35:40;4.67;;;3.50;;
10985;SDS011;5546;48.714;8.738;2022-08-25T00:38:07;3.60;;;3.30;;
10985;SDS011;5546;48.714;8.738;2022-08-25T00:40:33;3.67;;;3.37;;
10985;SDS011;5546;48.714;8.738;2022-08-25T00:43:00;3.87;;;3.47;;
10985;SDS011;5546;48.714;8.738;2022-08-25T00:45:26;3.90;;;3.60;;
10985;SDS011;5546;48.714;8.738;2022-08-25T00:47:52;3.50;;;3.13;;
10985;SDS011;5546;48.714;8.738;2022-08-25T00:50:19;3.57;;;3.27;;
10985;SDS011;5546;48.714;8.738;2022-08-25T00:52:47;5.10;;;3.33;;
10985;SDS011;5546;48.714;8.738;2022-08-25T00:57:54;4.30;;;3.20;;
10985;SDS011;5546;48.714;8.738;2022-08-25T01:02:46;3.80;;;3.50;;
10985;SDS011;5546;48.714;8.738;2022-08-25T01:05:12;3.60;;;3.30;;
10985;SDS011;5546;48.714;8.738;2022-08-25T01:07:38;5.57;;;4.00;;
10985;SDS011;5546;48.714;8.738;2022-08-25T01:10:07;3.93;;;3.53;;
10985;SDS011;5546;48.714;8.738;2022-08-25T01:12:34;3.40;;;3.10;;
10985;SDS011;5546;48.714;8.738;2022-08-25T01:15:01;5.00;;;3.53;;
10985;SDS011;5546;48.714;8.738;2022-08-25T01:17:48;4.77;;;3.83;;
10985;SDS011;5546;48.714;8.738;2022-08-25T01:20:17;4.73;;;3.60;;
10985;SDS011;5546;48.714;8.738;2022-08-25T01:22:44;5.27;;;4.30;;
10985;SDS011;5546;48.714;8.738;2022-08-25T01:28:03;4.00;;;3.63;;
10985;SDS011;5546;48.714;8.738;2022-08-25T01:30:29;5.90;;;3.80;;
10985;SDS011;5546;48.714;8.738;2022-08-25T01:32:55;3.53;;;3.23;;
10985;SDS011;5546;48.714;8.738;2022-08-25T01:35:20;4.13;;;3.73;;
10985;SDS011;5546;48.714;8.738;2022-08-25T01:37:46;6.50;;;3.83;;
10985;SDS011;5546;48.714;8.738;2022-08-25T01:40:12;4.00;;;3.70;;
10985;SDS011;5546;48.714;8.738;2022-08-25T01:42:46;4.37;;;4.03;;
10985;SDS011;5546;48.714;8.738;2022-08-25T01:45:18;4.37;;;3.67;;
10985;SDS011;5546;48.714;8.738;2022-08-25T01:47:44;3.87;;;3.57;;
10985;SDS011;5546;48.714;8.738;2022-08-25T01:50:10;3.87;;;3.57;;
10985;SDS011;5546;48.714;8.738;2022-08-25T01:52:37;5.30;;;3.90;;
10985;SDS011;5546;48.714;8.738;2022-08-25T01:55:13;3.90;;;3.60;;
10985;SDS011;5546;48.714;8.738;2022-08-25T01:57:38;4.17;;;3.83;;
10985;SDS011;5546;48.714;8.738;2022-08-25T02:00:05;4.30;;;3.90;;
10985;SDS011;5546;48.714;8.738;2022-08-25T02:02:32;4.73;;;3.90;;
10985;SDS011;5546;48.714;8.738;2022-08-25T02:04:58;3.70;;;3.40;;
10985;SDS011;5546;48.714;8.738;2022-08-25T02:07:24;6.90;;;4.03;;
10985;SDS011;5546;48.714;8.738;2022-08-25T02:09:50;3.73;;;3.43;;
10985;SDS011;5546;48.714;8.738;2022-08-25T02:12:15;5.23;;;3.93;;
10985;SDS011;5546;48.714;8.738;2022-08-25T02:14:41;4.00;;;3.70;;
10985;SDS011;5546;48.714;8.738;2022-08-25T02:17:07;4.23;;;3.83;;
10985;SDS011;5546;48.714;8.738;2022-08-25T02:19:33;4.60;;;3.47;;
10985;SDS011;5546;48.714;8.738;2022-08-25T02:21:59;4.37;;;3.97;;
10985;SDS011;5546;48.714;8.738;2022-08-25T02:24:25;4.50;;;3.70;;
10985;SDS011;5546;48.714;8.738;2022-08-25T02:26:50;5.47;;;4.07;;
10985;SDS011;5546;48.714;8.738;2022-08-25T02:29:16;3.80;;;3.50;;
10985;SDS011;5546;48.714;8.738;2022-08-25T02:31:42;5.30;;;3.80;;
10985;SDS011;5546;48.714;8.738;2022-08-25T02:34:08;3.93;;;3.63;;
10985;SDS011;5546;48.714;8.738;2022-08-25T02:36:34;4.07;;;3.67;;
10985;SDS011;5546;48.714;8.738;2022-08-25T02:39:01;4.97;;;4.00;;
10985;SDS011;5546;48.714;8.738;2022-08-25T02:41:28;5.53;;;3.73;;
10985;SDS011;5546;48.714;8.738;2022-08-25T02:43:55;4.40;;;3.93;;
10985;SDS011;5546;48.714;8.738;2022-08-25T02:46:21;4.47;;;4.10;;
10985;SDS011;5546;48.714;8.738;2022-08-25T02:48:49;5.93;;;4.43;;
10985;SDS011;5546;48.714;8.738;2022-08-25T02:51:16;4.80;;;4.03;;
10985;SDS011;5546;48.714;8.738;2022-08-25T02:53:42;4.40;;;4.07;;
10985;SDS011;5546;48.714;8.738;2022-08-25T02:56:10;4.53;;;4.13;;
10985;SDS011;5546;48.714;8.738;2022-08-25T02:58:37;5.40;;;4.20;;
10985;SDS011;5546;48.714;8.738;2022-08-25T03:01:04;4.07;;;3.73;;
10985;SDS011;5546;48.714;8.738;2022-08-25T03:03:31;4.60;;;4.20;;
10985;SDS011;5546;48.714;8.738;2022-08-25T03:05:58;4.37;;;3.97;;
10985;SDS011;5546;48.714;8.738;2022-08-25T03:08:23;5.23;;;4.73;;
10985;SDS011;5546;48.714;8.738;2022-08-25T03:10:50;5.17;;;4.73;;
10985;SDS011;5546;48.714;8.738;2022-08-25T03:13:15;5.03;;;4.27;;
10985;SDS011;5546;48.714;8.738;2022-08-25T03:15:42;4.13;;;3.83;;
10985;SDS011;5546;48.714;8.738;2022-08-25T03:18:08;5.23;;;4.40;;
10985;SDS011;5546;48.714;8.738;2022-08-25T03:20:35;4.93;;;4.17;;
10985;SDS011;5546;48.714;8.738;2022-08-25T03:23:02;5.07;;;4.30;;
10985;SDS011;5546;48.714;8.738;2022-08-25T03:25:29;4.67;;;4.17;;
10985;SDS011;5546;48.714;8.738;2022-08-25T03:28:13;5.20;;;4.70;;
10985;SDS011;5546;48.714;8.738;2022-08-25T03:30:39;4.03;;;3.73;;
10985;SDS011;5546;48.714;8.738;2022-08-25T03:33:05;5.60;;;4.40;;
10985;SDS011;5546;48.714;8.738;2022-08-25T03:35:31;6.93;;;4.73;;
10985;SDS011;5546;48.714;8.738;2022-08-25T03:37:57;4.60;;;4.20;;
10985;SDS011;5546;48.714;8.738;2022-08-25T03:40:23;4.57;;;4.10;;
10985;SDS011;5546;48.714;8.738;2022-08-25T03:42:49;4.73;;;4.33;;
10985;SDS011;5546;48.714;8.738;2022-08-25T03:45:15;5.70;;;4.37;;
10985;SDS011;5546;48.714;8.738;2022-08-25T03:47:41;7.70;;;4.70;;
10985;SDS011;5546;48.714;8.738;2022-08-25T03:50:10;5.33;;;4.70;;
10985;SDS011;5546;48.714;8.738;2022-08-25T03:52:36;5.47;;;4.80;;
10985;SDS011;5546;48.714;8.738;2022-08-25T03:55:03;4.80;;;4.40;;
10985;SDS011;5546;48.714;8.738;2022-08-25T03:57:30;4.77;;;4.27;;
10985;SDS011;5546;48.714;8.738;2022-08-25T03:59:56;5.70;;;5.10;;
10985;SDS011;5546;48.714;8.738;2022-08-25T04:02:22;4.90;;;4.40;;
10985;SDS011;5546;48.714;8.738;2022-08-25T04:04:47;4.87;;;4.37;;
10985;SDS011;5546;48.714;8.738;2022-08-25T04:07:14;4.67;;;4.27;;
10985;SDS011;5546;48.714;8.738;2022-08-25T04:09:39;4.80;;;4.40;;
10985;SDS011;5546;48.714;8.738;2022-08-25T04:12:05;4.70;;;4.30;;
10985;SDS011;5546;48.714;8.738;2022-08-25T04:14:31;5.30;;;4.77;;
10985;SDS011;5546;48.714;8.738;2022-08-25T04:16:56;7.27;;;4.07;;
10985;SDS011;5546;48.714;8.738;2022-08-25T04:19:22;4.80;;;4.40;;
10985;SDS011;5546;48.714;8.738;2022-08-25T04:21:47;4.67;;;4.17;;
10985;SDS011;5546;48.714;8.738;2022-08-25T04:24:13;4.83;;;4.40;;
10985;SDS011;5546;48.714;8.738;2022-08-25T04:26:40;4.63;;;4.23;;
10985;SDS011;5546;48.714;8.738;2022-08-25T04:29:08;4.63;;;4.23;;
10985;SDS011;5546;48.714;8.738;2022-08-25T04:31:37;5.07;;;4.57;;
10985;SDS011;5546;48.714;8.738;2022-08-25T04:34:04;4.77;;;4.37;;
10985;SDS011;5546;48.714;8.738;2022-08-25T04:36:31;5.33;;;4.70;;
10985;SDS011;5546;48.714;8.738;2022-08-25T04:38:57;4.87;;;4.43;;
10985;SDS011;5546;48.714;8.738;2022-08-25T04:41:22;5.80;;;4.73;;
10985;SDS011;5546;48.714;8.738;2022-08-25T04:43:49;5.40;;;4.90;;
10985;SDS011;5546;48.714;8.738;2022-08-25T04:46:17;5.80;;;4.90;;
10985;SDS011;5546;48.714;8.738;2022-08-25T04:48:45;5.53;;;4.60;;
10985;SDS011;5546;48.714;8.738;2022-08-25T04:51:12;5.60;;;5.10;;
10985;SDS011;5546;48.714;8.738;2022-08-25T04:53:40;5.30;;;4.80;;
10985;SDS011;5546;48.714;8.738;2022-08-25T04:56:08;5.40;;;4.90;;
10985;SDS011;5546;48.714;8.738;2022-08-25T04:58:35;5.10;;;4.63;;
10985;SDS011;5546;48.714;8.738;2022-08-25T05:01:07;4.60;;;4.10;;
10985;SDS011;5546;48.714;8.738;2022-08-25T05:03:34;4.50;;;4.10;;
10985;SDS011;5546;48.714;8.738;2022-08-25T05:06:01;4.93;;;4.47;;
10985;SDS011;5546;48.714;8.738;2022-08-25T05:08:27;4.83;;;4.43;;
10985;SDS011;5546;48.714;8.738;2022-08-25T05:10:53;4.43;;;4.03;;
10985;SDS011;5546;48.714;8.738;2022-08-25T05:13:20;5.10;;;4.60;;
10985;SDS011;5546;48.714;8.738;2022-08-25T05:15:53;7.27;;;4.33;;
10985;SDS011;5546;48.714;8.738;2022-08-25T05:18:21;6.23;;;4.50;;
10985;SDS011;5546;48.714;8.738;2022-08-25T05:20:49;6.63;;;4.50;;
10985;SDS011;5546;48.714;8.738;2022-08-25T05:23:17;4.23;;;3.93;;
10985;SDS011;5546;48.714;8.738;2022-08-25T05:25:43;5.47;;;3.97;;
10985;SDS011;5546;48.714;8.738;2022-08-25T05:28:09;4.60;;;4.20;;
10985;SDS011;5546;48.714;8.738;2022-08-25T05:30:38;4.73;;;3.67;;
10985;SDS011;5546;48.714;8.738;2022-08-25T05:33:05;4.33;;;3.73;;
10985;SDS011;5546;48.714;8.738;2022-08-25T05:35:32;4.00;;;3.70;;
10985;SDS011;5546;48.714;8.738;2022-08-25T05:37:57;4.10;;;3.20;;
10985;SDS011;5546;48.714;8.738;2022-08-25T05:40:23;3.97;;;3.53;;
10985;SDS011;5546;48.714;8.738;2022-08-25T05:42:49;6.88;;;3.65;;
10985;SDS011;5546;48.714;8.738;2022-08-25T05:45:15;3.97;;;3.33;;
10985;SDS011;5546;48.714;8.738;2022-08-25T05:47:41;3.72;;;3.33;;
10985;SDS011;5546;48.714;8.738;2022-08-25T05:50:07;6.70;;;3.63;;
10985;SDS011;5546;48.714;8.738;2022-08-25T05:52:33;3.45;;;3.15;;
10985;SDS011;5546;48.714;8.738;2022-08-25T05:54:58;3.63;;;3.33;;
10985;SDS011;5546;48.714;8.738;2022-08-25T05:57:24;3.40;;;3.08;;
10985;SDS011;5546;48.714;8.738;2022-08-25T05:59:50;3.95;;;3.40;;
10985;SDS011;5546;48.714;8.738;2022-08-25T06:02:17;5.25;;;3.38;;
10985;SDS011;5546;48.714;8.738;2022-08-25T06:05:01;3.47;;;3.17;;
10985;SDS011;5546;48.714;8.738;2022-08-25T06:07:27;6.80;;;3.40;;
10985;SDS011;5546;48.714;8.738;2022-08-25T06:09:52;3.97;;;3.28;;
10985;SDS011;5546;48.714;8.738;2022-08-25T06:12:18;3.38;;;3.08;;
10985;SDS011;5546;48.714;8.738;2022-08-25T06:14:45;3.45;;;3.15;;
10985;SDS011;5546;48.714;8.738;2022-08-25T06:17:12;6.20;;;3.30;;
10985;SDS011;5546;48.714;8.738;2022-08-25T06:19:37;3.65;;;3.33;;
10985;SDS011;5546;48.714;8.738;2022-08-25T06:22:03;3.72;;;3.40;;
10985;SDS011;5546;48.714;8.738;2022-08-25T06:24:29;3.50;;;3.20;;
10985;SDS011;5546;48.714;8.738;2022-08-25T06:26:55;4.03;;;3.63;;
10985;SDS011;5546;48.714;8.738;2022-08-25T06:29:21;3.53;;;3.22;;
10985;SDS011;5546;48.714;8.738;2022-08-25T06:31:47;3.70;;;3.40;;
10985;SDS011;5546;48.714;8.738;2022-08-25T06:34:14;3.60;;;3.28;;
10985;SDS011;5546;48.714;8.738;2022-08-25T06:36:40;4.45;;;3.35;;
10985;SDS011;5546;48.714;8.738;2022-08-25T06:39:06;3.33;;;2.92;;
10985;SDS011;5546;48.714;8.738;2022-08-25T06:41:32;3.70;;;3.40;;
10985;SDS011;5546;48.714;8.738;2022-08-25T06:43:57;5.15;;;3.33;;
10985;SDS011;5546;48.714;8.738;2022-08-25T06:46:24;3.70;;;3.40;;
10985;SDS011;5546;48.714;8.738;2022-08-25T06:48:51;3.75;;;3.22;;
10985;SDS011;5546;48.714;8.738;2022-08-25T06:51:21;6.97;;;3.70;;
10985;SDS011;5546;48.714;8.738;2022-08-25T06:53:49;4.60;;;3.17;;
10985;SDS011;5546;48.714;8.738;2022-08-25T06:56:16;6.35;;;3.15;;
10985;SDS011;5546;48.714;8.738;2022-08-25T06:58:43;4.40;;;4.00;;
10985;SDS011;5546;48.714;8.738;2022-08-25T07:01:14;4.88;;;3.60;;
10985;SDS011;5546;48.714;8.738;2022-08-25T07:03:43;5.35;;;3.67;;
10985;SDS011;5546;48.714;8.738;2022-08-25T07:06:09;6.07;;;3.72;;
10985;SDS011;5546;48.714;8.738;2022-08-25T07:08:35;5.45;;;3.65;;
10985;SDS011;5546;48.714;8.738;2022-08-25T07:11:08;6.88;;;4.38;;
10985;SDS011;5546;48.714;8.738;2022-08-25T07:13:34;5.68;;;3.60;;
10985;SDS011;5546;48.714;8.738;2022-08-25T07:16:01;4.10;;;3.70;;
10985;SDS011;5546;48.714;8.738;2022-08-25T07:18:28;3.80;;;3.50;;
10985;SDS011;5546;48.714;8.738;2022-08-25T07:20:54;5.75;;;3.92;;
10985;SDS011;5546;48.714;8.738;2022-08-25T07:23:20;5.13;;;3.72;;
10985;SDS011;5546;48.714;8.738;2022-08-25T07:25:46;4.07;;;3.78;;
10985;SDS011;5546;48.714;8.738;2022-08-25T07:28:13;4.47;;;3.38;;
10985;SDS011;5546;48.714;8.738;2022-08-25T07:30:39;5.82;;;3.60;;
10985;SDS011;5546;48.714;8.738;2022-08-25T07:33:05;6.00;;;4.07;;
10985;SDS011;5546;48.714;8.738;2022-08-25T07:35:31;5.72;;;3.90;;
10985;SDS011;5546;48.714;8.738;2022-08-25T07:37:56;6.78;;;3.65;;
10985;SDS011;5546;48.714;8.738;2022-08-25T07:40:24;4.63;;;4.07;;
10985;SDS011;5546;48.714;8.738;2022-08-25T07:42:52;5.43;;;3.85;;
10985;SDS011;5546;48.714;8.738;2022-08-25T07:45:20;6.43;;;3.85;;
10985;SDS011;5546;48.714;8.738;2022-08-25T07:48:02;5.03;;;3.75;;
10985;SDS011;5546;48.714;8.738;2022-08-25T07:50:29;4.95;;;4.28;;
10985;SDS011;5546;48.714;8.738;2022-08-25T07:52:56;4.20;;;3.88;;
10985;SDS011;5546;48.714;8.738;2022-08-25T07:55:23;4.55;;;4.10;;
10985;SDS011;5546;48.714;8.738;2022-08-25T07:57:50;5.40;;;4.07;;
10985;SDS011;5546;48.714;8.738;2022-08-25T08:00:16;4.53;;;4.13;;
10985;SDS011;5546;48.714;8.738;2022-08-25T08:02:42;4.60;;;4.20;;
10985;SDS011;5546;48.714;8.738;2022-08-25T08:05:08;4.10;;;3.80;;
10985;SDS011;5546;48.714;8.738;2022-08-25T08:07:35;4.78;;;4.38;;
10985;SDS011;5546;48.714;8.738;2022-08-25T08:10:02;4.65;;;3.95;;
10985;SDS011;5546;48.714;8.738;2022-08-25T08:12:28;4.97;;;4.47;;
10985;SDS011;5546;48.714;8.738;2022-08-25T08:14:54;4.85;;;4.30;;
10985;SDS011;5546;48.714;8.738;2022-08-25T08:17:20;4.68;;;4.20;;
10985;SDS011;5546;48.714;8.738;2022-08-25T08:19:46;4.90;;;4.38;;
10985;SDS011;5546;48.714;8.738;2022-08-25T08:22:13;4.97;;;4.07;;
10985;SDS011;5546;48.714;8.738;2022-08-25T08:24:40;4.70;;;4.30;;
10985;SDS011;5546;48.714;8.738;2022-08-25T08:27:08;5.00;;;4.05;;
10985;SDS011;5546;48.714;8.738;2022-08-25T08:29:35;3.95;;;3.65;;
10985;SDS011;5546;48.714;8.738;2022-08-25T08:32:02;4.97;;;4.47;;
10985;SDS011;5546;48.714;8.738;2022-08-25T08:34:30;6.45;;;4.20;;
10985;SDS011;5546;48.714;8.738;2022-08-25T08:36:56;4.50;;;4.10;;
10985;SDS011;5546;48.714;8.738;2022-08-25T08:39:23;4.28;;;3.92;;
10985;SDS011;5546;48.714;8.738;2022-08-25T08:47:24;4.13;;;3.72;;
10985;SDS011;5546;48.714;8.738;2022-08-25T08:53:08;4.63;;;4.07;;
10985;SDS011;5546;48.714;8.738;2022-08-25T08:55:44;5.88;;;4.10;;
10985;SDS011;5546;48.714;8.738;2022-08-25T08:58:21;4.30;;;3.90;;
10985;SDS011;5546;48.714;8.738;2022-08-25T09:00:48;5.00;;;4.50;;
10985;SDS011;5546;48.714;8.738;2022-08-25T09:03:30;5.20;;;3.92;;
10985;SDS011;5546;48.714;8.738;2022-08-25T09:06:29;4.30;;;4.00;;
10985;SDS011;5546;48.714;8.738;2022-08-25T09:09:03;3.88;;;3.58;;
10985;SDS011;5546;48.714;8.738;2022-08-25T09:11:42;4.82;;;4.00;;
10985;SDS011;5546;48.714;8.738;2022-08-25T09:22:48;4.55;;;3.92;;
10985;SDS011;5546;48.714;8.738;2022-08-25T09:30:27;4.75;;;3.45;;
10985;SDS011;5546;48.714;8.738;2022-08-25T09:33:01;4.32;;;3.92;;
10985;SDS011;5546;48.714;8.738;2022-08-25T09:35:32;4.15;;;3.85;;
10985;SDS011;5546;48.714;8.738;2022-08-25T09:38:02;4.07;;;3.67;;
10985;SDS011;5546;48.714;8.738;2022-08-25T09:40:35;4.93;;;4.32;;
10985;SDS011;5546;48.714;8.738;2022-08-25T09:43:03;4.25;;;3.83;;
10985;SDS011;5546;48.714;8.738;2022-08-25T09:45:40;5.15;;;3.85;;
10985;SDS011;5546;48.714;8.738;2022-08-25T09:48:24;4.72;;;3.78;;
10985;SDS011;5546;48.714;8.738;2022-08-25T09:51:08;5.07;;;3.60;;
10985;SDS011;5546;48.714;8.738;2022-08-25T09:53:54;6.00;;;3.85;;
10985;SDS011;5546;48.714;8.738;2022-08-25T09:59:25;4.53;;;3.53;;
10985;SDS011;5546;48.714;8.738;2022-08-25T10:01:56;5.50;;;3.90;;
10985;SDS011;5546;48.714;8.738;2022-08-25T10:04:32;5.85;;;3.78;;
10985;SDS011;5546;48.714;8.738;2022-08-25T10:07:04;4.18;;;3.63;;
10985;SDS011;5546;48.714;8.738;2022-08-25T10:09:45;4.03;;;3.72;;
10985;SDS011;5546;48.714;8.738;2022-08-25T10:12:19;5.13;;;3.60;;
10985;SDS011;5546;48.714;8.738;2022-08-25T10:14:49;3.85;;;3.40;;
10985;SDS011;5546;48.714;8.738;2022-08-25T10:19:49;4.47;;;3.40;;
10985;SDS011;5546;48.714;8.738;2022-08-25T10:22:20;3.85;;;3.55;;
10985;SDS011;5546;48.714;8.738;2022-08-25T10:24:49;4.55;;;3.53;;
10985;SDS011;5546;48.714;8.738;2022-08-25T10:27:26;4.20;;;3.80;;
10985;SDS011;5546;48.714;8.738;2022-08-25T10:30:26;3.63;;;3.33;;
10985;SDS011;5546;48.714;8.738;2022-08-25T10:36:02;4.68;;;3.58;;
10985;SDS011;5546;48.714;8.738;2022-08-25T10:38:42;4.00;;;3.67;;
10985;SDS011;5546;48.714;8.738;2022-08-25T10:44:12;4.28;;;3.58;;
10985;SDS011;5546;48.714;8.738;2022-08-25T10:49:54;4.50;;;3.80;;
10985;SDS011;5546;48.714;8.738;2022-08-25T10:52:37;3.55;;;3.25;;
10985;SDS011;5546;48.714;8.738;2022-08-25T10:55:24;4.07;;;3.47;;
10985;SDS011;5546;48.714;8.738;2022-08-25T11:00:55;4.10;;;3.78;;
10985;SDS011;5546;48.714;8.738;2022-08-25T11:03:46;3.92;;;3.53;;
10985;SDS011;5546;48.714;8.738;2022-08-25T11:09:20;4.80;;;3.80;;
10985;SDS011;5546;48.714;8.738;2022-08-25T11:11:52;4.30;;;3.88;;
10985;SDS011;5546;48.714;8.738;2022-08-25T11:14:30;4.45;;;3.75;;
10985;SDS011;5546;48.714;8.738;2022-08-25T11:19:50;4.45;;;3.88;;
10985;SDS011;5546;48.714;8.738;2022-08-25T11:22:29;5.80;;;3.60;;
10985;SDS011;5546;48.714;8.738;2022-08-25T11:27:40;3.42;;;3.13;;
10985;SDS011;5546;48.714;8.738;2022-08-25T11:30:11;3.60;;;3.30;;
10985;SDS011;5546;48.714;8.738;2022-08-25T11:32:38;3.85;;;3.30;;
10985;SDS011;5546;48.714;8.738;2022-08-25T11:35:10;3.95;;;3.60;;
10985;SDS011;5546;48.714;8.738;2022-08-25T11:38:02;3.47;;;3.17;;
10985;SDS011;5546;48.714;8.738;2022-08-25T11:41:12;3.33;;;3.03;;
10985;SDS011;5546;48.714;8.738;2022-08-25T11:52:07;4.07;;;2.80;;
10985;SDS011;5546;48.714;8.738;2022-08-25T11:57:47;3.67;;;3.25;;
10985;SDS011;5546;48.714;8.738;2022-08-25T12:00:35;4.35;;;3.08;;
10985;SDS011;5546;48.714;8.738;2022-08-25T12:06:17;3.55;;;3.25;;
10985;SDS011;5546;48.714;8.738;2022-08-25T12:22:37;2.80;;;2.60;;
10985;SDS011;5546;48.714;8.738;2022-08-25T12:24:50;3.25;;;2.95;;
10985;SDS011;5546;48.714;8.738;2022-08-25T12:27:22;4.05;;;2.55;;
10985;SDS011;5546;48.714;8.738;2022-08-25T12:41:10;3.13;;;2.80;;
10985;SDS011;5546;48.714;8.738;2022-08-25T12:45:53;3.20;;;2.90;;
10985;SDS011;5546;48.714;8.738;2022-08-25T12:48:40;2.85;;;2.65;;
10985;SDS011;5546;48.714;8.738;2022-08-25T12:51:19;3.08;;;2.80;;
10985;SDS011;5546;48.714;8.738;2022-08-25T12:53:47;3.10;;;2.80;;
10985;SDS011;5546;48.714;8.738;2022-08-25T12:59:06;3.17;;;2.88;;
10985;SDS011;5546;48.714;8.738;2022-08-25T13:10:03;3.40;;;3.10;;
10985;SDS011;5546;48.714;8.738;2022-08-25T13:15:05;3.90;;;3.30;;
10985;SDS011;5546;48.714;8.738;2022-08-25T13:17:37;4.63;;;3.03;;
10985;SDS011;5546;48.714;8.738;2022-08-25T13:20:36;3.08;;;2.83;;
10985;SDS011;5546;48.714;8.738;2022-08-25T13:22:56;3.42;;;3.13;;
10985;SDS011;5546;48.714;8.738;2022-08-25T13:25:25;4.05;;;3.08;;
10985;SDS011;5546;48.714;8.738;2022-08-25T13:27:57;3.55;;;3.10;;
10985;SDS011;5546;48.714;8.738;2022-08-25T13:30:28;4.00;;;3.10;;
10985;SDS011;5546;48.714;8.738;2022-08-25T13:32:56;3.35;;;3.13;;
10985;SDS011;5546;48.714;8.738;2022-08-25T13:35:24;2.70;;;2.50;;
10985;SDS011;5546;48.714;8.738;2022-08-25T13:38:13;3.45;;;3.15;;
10985;SDS011;5546;48.714;8.738;2022-08-25T13:40:43;3.80;;;3.40;;
10985;SDS011;5546;48.714;8.738;2022-08-25T13:43:10;3.55;;;3.25;;
10985;SDS011;5546;48.714;8.738;2022-08-25T13:45:39;4.05;;;3.20;;
10985;SDS011;5546;48.714;8.738;2022-08-25T13:48:08;3.20;;;2.83;;
10985;SDS011;5546;48.714;8.738;2022-08-25T13:50:35;5.18;;;3.22;;
10985;SDS011;5546;48.714;8.738;2022-08-25T13:53:13;2.92;;;2.63;;
10985;SDS011;5546;48.714;8.738;2022-08-25T13:58:29;4.35;;;3.20;;
10985;SDS011;5546;48.714;8.738;2022-08-25T14:03:49;3.50;;;2.95;;
10985;SDS011;5546;48.714;8.738;2022-08-25T14:09:14;3.45;;;3.05;;
10985;SDS011;5546;48.714;8.738;2022-08-25T14:11:45;5.18;;;2.88;;
10985;SDS011;5546;48.714;8.738;2022-08-25T14:16:51;3.40;;;2.90;;
10985;SDS011;5546;48.714;8.738;2022-08-25T14:19:22;3.38;;;3.08;;
10985;SDS011;5546;48.714;8.738;2022-08-25T14:21:49;3.38;;;2.97;;
10985;SDS011;5546;48.714;8.738;2022-08-25T14:24:17;3.35;;;3.05;;
10985;SDS011;5546;48.714;8.738;2022-08-25T14:26:45;3.35;;;3.05;;
10985;SDS011;5546;48.714;8.738;2022-08-25T14:29:11;3.72;;;3.10;;
10985;SDS011;5546;48.714;8.738;2022-08-25T14:31:39;3.08;;;2.83;;
10985;SDS011;5546;48.714;8.738;2022-08-25T14:36:54;3.83;;;3.00;;
10985;SDS011;5546;48.714;8.738;2022-08-25T14:39:20;3.50;;;2.92;;
10985;SDS011;5546;48.714;8.738;2022-08-25T14:41:46;3.47;;;2.88;;
10985;SDS011;5546;48.714;8.738;2022-08-25T14:44:13;3.33;;;3.03;;
10985;SDS011;5546;48.714;8.738;2022-08-25T14:46:43;3.38;;;3.00;;
10985;SDS011;5546;48.714;8.738;2022-08-25T14:49:19;5.72;;;3.13;;
10985;SDS011;5546;48.714;8.738;2022-08-25T14:51:53;5.43;;;2.72;;
10985;SDS011;5546;48.714;8.738;2022-08-25T14:54:20;3.33;;;3.03;;
10985;SDS011;5546;48.714;8.738;2022-08-25T14:56:49;3.60;;;3.00;;
10985;SDS011;5546;48.714;8.738;2022-08-25T14:59:14;3.10;;;2.80;;
10985;SDS011;5546;48.714;8.738;2022-08-25T15:01:40;3.58;;;3.00;;
10985;SDS011;5546;48.714;8.738;2022-08-25T15:04:08;3.63;;;2.97;;
10985;SDS011;5546;48.714;8.738;2022-08-25T15:06:37;5.30;;;2.65;;
10985;SDS011;5546;48.714;8.738;2022-08-25T15:09:07;3.38;;;3.15;;
10985;SDS011;5546;48.714;8.738;2022-08-25T15:11:35;3.17;;;2.88;;
10985;SDS011;5546;48.714;8.738;2022-08-25T15:14:20;3.33;;;2.65;;
10985;SDS011;5546;48.714;8.738;2022-08-25T15:16:53;3.85;;;2.70;;
10985;SDS011;5546;48.714;8.738;2022-08-25T15:19:21;3.00;;;2.80;;
10985;SDS011;5546;48.714;8.738;2022-08-25T15:21:49;4.38;;;2.63;;
10985;SDS011;5546;48.714;8.738;2022-08-25T15:24:15;3.33;;;3.13;;
10985;SDS011;5546;48.714;8.738;2022-08-25T15:26:46;4.18;;;2.60;;
10985;SDS011;5546;48.714;8.738;2022-08-25T15:29:20;3.53;;;2.97;;
10985;SDS011;5546;48.714;8.738;2022-08-25T15:31:47;3.22;;;2.92;;
10985;SDS011;5546;48.714;8.738;2022-08-25T15:34:13;3.28;;;2.97;;
10985;SDS011;5546;48.714;8.738;2022-08-25T15:36:39;2.97;;;2.70;;
10985;SDS011;5546;48.714;8.738;2022-08-25T15:39:06;3.30;;;2.67;;
10985;SDS011;5546;48.714;8.738;2022-08-25T15:41:33;5.35;;;2.90;;
10985;SDS011;5546;48.714;8.738;2022-08-25T15:44:00;3.40;;;3.10;;
10985;SDS011;5546;48.714;8.738;2022-08-25T15:46:27;5.60;;;5.10;;
10985;SDS011;5546;48.714;8.738;2022-08-25T15:48:54;3.95;;;2.97;;
10985;SDS011;5546;48.714;8.738;2022-08-25T15:51:21;7.80;;;3.00;;
10985;SDS011;5546;48.714;8.738;2022-08-25T15:53:46;3.33;;;3.03;;
10985;SDS011;5546;48.714;8.738;2022-08-25T15:56:12;4.28;;;3.17;;
10985;SDS011;5546;48.714;8.738;2022-08-25T15:58:41;4.00;;;2.83;;
10985;SDS011;5546;48.714;8.738;2022-08-25T16:01:13;3.10;;;2.70;;
10985;SDS011;5546;48.714;8.738;2022-08-25T16:03:40;2.88;;;2.67;;
10985;SDS011;5546;48.714;8.738;2022-08-25T16:06:05;3.17;;;2.88;;
10985;SDS011;5546;48.714;8.738;2022-08-25T16:08:32;3.17;;;2.88;;
10985;SDS011;5546;48.714;8.738;2022-08-25T16:10:57;4.68;;;3.08;;
10985;SDS011;5546;48.714;8.738;2022-08-25T16:13:23;3.20;;;2.83;;
10985;SDS011;5546;48.714;8.738;2022-08-25T16:15:49;3.35;;;2.75;;
10985;SDS011;5546;48.714;8.738;2022-08-25T16:18:14;3.03;;;2.72;;
10985;SDS011;5546;48.714;8.738;2022-08-25T16:20:44;2.80;;;2.58;;
10985;SDS011;5546;48.714;8.738;2022-08-25T16:23:11;3.33;;;2.95;;
10985;SDS011;5546;48.714;8.738;2022-08-25T16:25:38;3.75;;;2.83;;
10985;SDS011;5546;48.714;8.738;2022-08-25T16:28:05;3.55;;;3.00;;
10985;SDS011;5546;48.714;8.738;2022-08-25T16:30:31;5.15;;;3.05;;
10985;SDS011;5546;48.714;8.738;2022-08-25T16:32:57;3.10;;;2.70;;
10985;SDS011;5546;48.714;8.738;2022-08-25T16:35:22;3.35;;;3.05;;
10985;SDS011;5546;48.714;8.738;2022-08-25T16:37:48;3.42;;;2.92;;
10985;SDS011;5546;48.714;8.738;2022-08-25T16:40:14;2.83;;;2.63;;
10985;SDS011;5546;48.714;8.738;2022-08-25T16:42:42;7.38;;;4.97;;
10985;SDS011;5546;48.714;8.738;2022-08-25T16:45:09;2.90;;;2.70;;
10985;SDS011;5546;48.714;8.738;2022-08-25T16:47:35;2.95;;;2.75;;
10985;SDS011;5546;48.714;8.738;2022-08-25T16:50:02;3.38;;;3.08;;
10985;SDS011;5546;48.714;8.738;2022-08-25T16:52:30;4.43;;;2.85;;
10985;SDS011;5546;48.714;8.738;2022-08-25T16:55:14;4.05;;;3.72;;
10985;SDS011;5546;48.714;8.738;2022-08-25T16:57:42;2.83;;;2.50;;
10985;SDS011;5546;48.714;8.738;2022-08-25T17:00:13;3.78;;;2.35;;
10985;SDS011;5546;48.714;8.738;2022-08-25T17:02:41;2.90;;;2.70;;
10985;SDS011;5546;48.714;8.738;2022-08-25T17:05:07;3.08;;;2.75;;
10985;SDS011;5546;48.714;8.738;2022-08-25T17:07:33;4.32;;;2.60;;
10985;SDS011;5546;48.714;8.738;2022-08-25T17:09:59;3.95;;;2.60;;
10985;SDS011;5546;48.714;8.738;2022-08-25T17:12:25;2.67;;;2.47;;
10985;SDS011;5546;48.714;8.738;2022-08-25T17:14:52;5.55;;;2.70;;
10985;SDS011;5546;48.714;8.738;2022-08-25T17:17:17;4.05;;;2.55;;